Terminal Aerodrome Forecast
Issued by NWS Tulsa, OK

Home | Current Version | Previous Version | Text Only | Print | Product List | Glossary On
Versions: 1 2 3 4 5 6 7 8 9 10 11 12 13
139
FTUS44 KTSA 260524
TAFTUL
TAF
KTUL 260524Z 2606/2706 15004KT P6SM SCT070 BKN250
     FM261100 16008KT P6SM BKN060
     FM261700 17012KT P6SM BKN050
     FM270100 11005KT P6SM BKN040=

USA.gov is the U.S. government's official web portal to all federal, state and local government web resources and services.